createdAt,value
2023-02-09T00:00:12.986Z,98037.19
2023-02-09T00:02:45.991Z,98025.63
2023-02-09T00:05:14.473Z,98021.50
2023-02-09T00:07:42.724Z,98030.53
2023-02-09T00:10:11.752Z,98023.38
2023-02-09T00:12:57.590Z,98025.84
2023-02-09T00:15:27.352Z,98021.50
2023-02-09T00:17:55.609Z,98025.00
2023-02-09T00:20:23.828Z,98015.50
2023-02-09T00:22:52.080Z,98012.53
2023-02-09T00:25:20.396Z,98010.25
2023-02-09T00:27:48.572Z,98006.56
2023-02-09T00:30:17.095Z,98007.84
2023-02-09T00:32:47.825Z,98014.22
2023-02-09T00:35:17.226Z,98013.81
2023-02-09T00:37:45.468Z,98019.44
2023-02-09T00:40:14.795Z,98004.53
2023-02-09T00:42:43.111Z,98004.91
2023-02-09T00:45:11.680Z,98000.88
2023-02-09T00:47:39.832Z,97993.69
2023-02-09T00:50:09.917Z,97993.56
2023-02-09T00:52:37.987Z,97994.50
2023-02-09T00:55:06.813Z,97993.31
2023-02-09T00:57:35.997Z,97988.41
2023-02-09T01:00:05.210Z,97989.47
2023-02-09T01:02:33.383Z,98000.59
2023-02-09T01:05:01.767Z,97997.81
2023-02-09T01:07:31.192Z,97986.72
2023-02-09T01:10:00.366Z,97990.03
2023-02-09T01:12:28.590Z,97997.69
2023-02-09T01:14:57.483Z,97988.84
2023-02-09T01:17:27.591Z,97989.38
2023-02-09T01:19:56.611Z,97991.34
2023-02-09T01:22:24.821Z,97982.78
2023-02-09T01:24:54.169Z,97984.97
2023-02-09T01:27:22.491Z,97976.72
2023-02-09T01:29:50.701Z,97984.25
2023-02-09T01:32:18.810Z,97971.56
2023-02-09T01:34:46.891Z,97982.50
2023-02-09T01:37:14.880Z,97979.50
2023-02-09T01:39:42.859Z,97986.31
2023-02-09T01:42:15.874Z,97985.91
2023-02-09T01:45:15.619Z,97964.09
2023-02-09T01:47:49.587Z,97975.13
2023-02-09T01:50:18.671Z,97974.19
2023-02-09T01:52:49.441Z,97978.09
2023-02-09T01:55:23.717Z,97977.91
2023-02-09T01:57:58.629Z,97977.41
2023-02-09T02:00:27.552Z,97975.34
2023-02-09T02:03:00.820Z,97977.72
2023-02-09T02:05:32.001Z,97969.75
2023-02-09T02:08:05.729Z,97960.97
2023-02-09T02:10:34.297Z,97955.59
2023-02-09T02:13:04.737Z,97962.59
2023-02-09T02:15:45.767Z,97956.63
2023-02-09T02:18:31.820Z,97957.31
2023-02-09T02:21:49.499Z,97965.13
2023-02-09T02:24:51.692Z,97979.06
2023-02-09T02:27:34.669Z,97963.69
2023-02-09T02:30:44.674Z,97968.03
2023-02-09T02:33:29.272Z,97963.81
2023-02-09T02:36:06.673Z,97966.28
2023-02-09T02:38:40.140Z,97970.13
2023-02-09T02:41:15.842Z,97962.06
2023-02-09T02:43:56.567Z,97968.03
2023-02-09T02:46:32.215Z,97967.09
2023-02-09T02:49:09.093Z,97971.47
2023-02-09T02:54:39.338Z,97963.72
2023-02-09T02:57:15.148Z,97963.50
2023-02-09T02:59:50.793Z,97965.56
2023-02-09T03:02:24.457Z,97972.41
2023-02-09T03:04:57.854Z,97959.88
2023-02-09T03:07:25.927Z,97960.00
2023-02-09T03:09:57.595Z,97954.31
2023-02-09T03:12:42.572Z,97952.44
2023-02-09T03:15:50.585Z,97949.78
2023-02-09T03:18:28.587Z,97959.19
2023-02-09T03:21:02.995Z,97955.91
2023-02-09T03:23:37.336Z,97958.78
2023-02-09T03:26:12.095Z,97961.97
2023-02-09T03:28:44.039Z,97955.78
2023-02-09T03:31:12.458Z,97951.53
2023-02-09T03:33:41.060Z,97957.34
2023-02-09T03:36:16.087Z,97957.25
2023-02-09T03:38:44.129Z,97952.38
2023-02-09T03:41:12.562Z,97950.59
2023-02-09T03:43:58.104Z,97946.38
2023-02-09T03:46:26.181Z,97946.47
2023-02-09T03:48:54.240Z,97948.84
2023-02-09T03:51:23.575Z,97951.66
2023-02-09T03:53:51.682Z,97954.31
2023-02-09T03:56:19.763Z,97963.41
2023-02-09T03:58:47.858Z,97946.47
2023-02-09T04:01:16.098Z,97952.47
2023-02-09T04:03:44.361Z,97956.41
2023-02-09T04:06:12.489Z,97961.16
2023-02-09T04:08:43.121Z,97959.63
2023-02-09T04:11:11.682Z,97962.81
2023-02-09T04:13:39.825Z,97957.94
2023-02-09T04:16:08.304Z,97965.28
2023-02-09T04:18:36.382Z,97959.38
2023-02-09T04:21:04.812Z,97964.16
2023-02-09T04:23:32.882Z,97961.97
2023-02-09T04:26:02.309Z,97966.44
2023-02-09T04:28:30.345Z,97965.69
2023-02-09T04:30:58.784Z,97963.84
2023-02-09T04:33:26.976Z,97975.03
2023-02-09T04:35:55.029Z,97974.69
2023-02-09T04:38:23.953Z,97977.91
2023-02-09T04:40:54.749Z,97971.38
2023-02-09T04:43:24.484Z,97965.94
2023-02-09T04:45:52.859Z,97969.84
2023-02-09T04:48:23.646Z,97966.13
2023-02-09T04:50:52.136Z,97969.72
2023-02-09T04:53:20.656Z,97968.28
2023-02-09T04:55:51.438Z,97953.50
2023-02-09T04:58:38.873Z,97954.47
2023-02-09T05:01:08.957Z,97953.72
2023-02-09T05:03:37.184Z,97957.53
2023-02-09T05:06:06.850Z,97959.63
2023-02-09T05:08:34.950Z,97950.94
2023-02-09T05:11:03.342Z,97953.94
2023-02-09T05:13:31.406Z,97947.13
2023-02-09T05:15:59.741Z,97944.53
2023-02-09T05:18:30.179Z,97947.22
2023-02-09T05:20:58.336Z,97946.19
2023-02-09T05:23:26.434Z,97947.09
2023-02-09T05:25:54.996Z,97942.44
2023-02-09T05:28:23.688Z,97944.94
2023-02-09T05:30:53.779Z,97935.66
2023-02-09T05:33:22.811Z,97940.59
2023-02-09T05:35:55.669Z,97940.38
2023-02-09T05:38:24.268Z,97946.59
2023-02-09T05:40:52.428Z,97942.97
2023-02-09T05:43:20.510Z,97954.13
2023-02-09T05:45:48.639Z,97954.34
2023-02-09T05:48:16.707Z,97954.53
2023-02-09T05:50:45.025Z,97966.22
2023-02-09T05:53:17.264Z,97957.94
2023-02-09T05:55:45.503Z,97966.84
2023-02-09T05:58:13.875Z,97965.41
2023-02-09T06:00:41.896Z,97963.00
2023-02-09T06:03:10.016Z,97963.94
2023-02-09T06:05:38.062Z,97964.66
2023-02-09T06:08:06.377Z,97976.16
2023-02-09T06:10:35.778Z,97980.78
2023-02-09T06:13:03.892Z,97973.56
2023-02-09T06:15:31.973Z,97974.38
2023-02-09T06:18:00.111Z,97979.13
2023-02-09T06:20:28.322Z,97976.13
2023-02-09T06:22:56.607Z,97973.75
2023-02-09T06:25:24.804Z,97977.97
2023-02-09T06:27:54.254Z,97967.25
2023-02-09T06:30:22.687Z,97983.25
2023-02-09T06:32:50.732Z,97982.75
2023-02-09T06:35:19.132Z,97991.72
2023-02-09T06:37:47.190Z,97980.59
2023-02-09T06:40:15.201Z,97992.97
2023-02-09T06:42:46.029Z,98001.34
2023-02-09T06:45:18.170Z,98000.31
2023-02-09T06:47:47.407Z,98009.72
2023-02-09T06:50:18.086Z,98011.78
2023-02-09T06:53:12.389Z,98011.78
2023-02-09T06:55:40.501Z,98014.25
2023-02-09T06:58:08.521Z,98005.28
2023-02-09T07:00:37.892Z,98012.31
2023-02-09T07:03:31.355Z,98003.81
2023-02-09T07:06:05.651Z,98010.34
2023-02-09T07:08:33.752Z,98009.22
2023-02-09T07:11:05.553Z,98000.31
2023-02-09T07:13:34.613Z,98009.63
2023-02-09T07:16:07.963Z,98016.13
2023-02-09T07:18:37.127Z,98014.47
2023-02-09T07:21:08.573Z,98014.97
2023-02-09T07:23:37.246Z,98018.41
2023-02-09T07:26:09.128Z,98024.06
2023-02-09T07:28:38.166Z,98022.66
2023-02-09T07:31:10.544Z,98021.91
2023-02-09T07:33:38.814Z,98026.53
2023-02-09T07:36:09.244Z,98027.38
2023-02-09T07:38:38.457Z,98026.97
2023-02-09T07:41:08.803Z,98032.97
2023-02-09T07:43:36.864Z,98033.66
2023-02-09T07:46:08.326Z,98034.19
2023-02-09T07:48:37.649Z,98033.75
2023-02-09T07:51:07.059Z,98032.50
2023-02-09T07:53:35.189Z,98025.22
2023-02-09T07:56:05.664Z,98028.47
2023-02-09T07:58:33.755Z,98031.59
2023-02-09T08:01:08.247Z,98032.06
2023-02-09T08:03:37.362Z,98032.16
2023-02-09T08:06:12.840Z,98033.75
2023-02-09T08:08:40.894Z,98027.53
2023-02-09T08:11:09.024Z,98029.84
2023-02-09T08:13:40.973Z,98028.72
2023-02-09T08:16:15.740Z,98036.50
2023-02-09T08:18:48.961Z,98037.94
2023-02-09T08:21:18.573Z,98049.50
2023-02-09T08:23:52.390Z,98044.81
2023-02-09T08:26:20.806Z,98037.50
2023-02-09T08:28:49.232Z,98033.03
2023-02-09T08:31:21.782Z,98045.06
2023-02-09T08:33:51.610Z,98041.88
2023-02-09T08:36:21.465Z,98038.94
2023-02-09T08:38:49.850Z,98029.50
2023-02-09T08:41:20.063Z,98034.94
2023-02-09T08:43:51.794Z,98040.47
2023-02-09T08:46:21.520Z,98034.34
2023-02-09T08:48:49.601Z,98039.53
2023-02-09T08:51:17.950Z,98045.06
2023-02-09T08:53:52.201Z,98037.41
2023-02-09T08:56:21.943Z,98038.94
2023-02-09T08:58:50.870Z,98036.31
2023-02-09T09:01:20.544Z,98043.75
2023-02-09T09:03:49.453Z,98042.91
2023-02-09T09:06:17.704Z,98030.69
2023-02-09T09:08:45.940Z,98034.34
2023-02-09T09:11:14.907Z,98029.81
2023-02-09T09:13:43.368Z,98030.53
2023-02-09T09:16:17.113Z,98040.28
2023-02-09T09:18:46.714Z,98039.47
2023-02-09T09:21:15.951Z,98041.06
2023-02-09T09:23:44.202Z,98031.13
2023-02-09T09:26:12.919Z,98038.41
2023-02-09T09:28:40.947Z,98044.00
2023-02-09T09:31:10.286Z,98042.94
2023-02-09T09:33:38.853Z,98054.13
2023-02-09T09:36:09.751Z,98058.78
2023-02-09T09:38:39.635Z,98056.09
2023-02-09T09:41:25.334Z,98057.38
2023-02-09T09:43:55.790Z,98061.41
2023-02-09T09:46:34.289Z,98052.69
2023-02-09T09:49:04.113Z,98058.47
2023-02-09T09:51:41.580Z,98066.22
2023-02-09T09:54:18.356Z,98069.00
2023-02-09T09:56:46.504Z,98070.91
2023-02-09T09:59:18.915Z,98071.22
2023-02-09T10:01:48.419Z,98071.63
2023-02-09T10:04:17.912Z,98062.50
2023-02-09T10:06:51.229Z,98070.34
2023-02-09T10:09:33.262Z,98078.16
2023-02-09T10:12:17.472Z,98074.63
2023-02-09T10:14:45.684Z,98065.56
2023-02-09T10:17:13.799Z,98082.31
2023-02-09T10:19:41.926Z,98071.28
2023-02-09T10:22:14.131Z,98072.63
2023-02-09T10:24:42.313Z,98060.81
2023-02-09T10:27:16.262Z,98059.72
2023-02-09T10:29:44.297Z,98056.47
2023-02-09T10:32:19.601Z,98060.44
2023-02-09T10:34:51.410Z,98057.25
2023-02-09T10:37:27.821Z,98060.97
2023-02-09T10:40:07.297Z,98066.19
2023-02-09T10:42:38.284Z,98062.34
2023-02-09T10:45:15.414Z,98059.44
2023-02-09T10:47:43.551Z,98053.13
2023-02-09T10:50:19.472Z,98056.84
2023-02-09T10:53:01.384Z,98060.72
2023-02-09T10:55:37.217Z,98056.31
2023-02-09T10:58:22.401Z,98055.47
2023-02-09T11:00:59.020Z,98047.75
2023-02-09T11:03:27.363Z,98043.72
2023-02-09T11:06:14.896Z,98050.41
2023-02-09T11:08:49.217Z,98046.78
2023-02-09T11:11:32.318Z,98038.59
2023-02-09T11:14:01.148Z,98045.88
2023-02-09T11:16:50.666Z,98042.16
2023-02-09T11:19:44.994Z,98039.50
2023-02-09T11:22:18.175Z,98033.25
2023-02-09T11:25:01.547Z,98033.25
2023-02-09T11:28:02.497Z,98028.69
2023-02-09T11:31:02.135Z,98027.13
2023-02-09T11:33:44.117Z,98018.84
2023-02-09T11:36:29.744Z,98009.69
2023-02-09T11:39:01.669Z,98012.50
2023-02-09T11:41:56.349Z,98001.41
2023-02-09T11:44:31.204Z,97997.25
2023-02-09T11:47:06.308Z,97994.28
2023-02-09T11:49:45.272Z,97997.31
2023-02-09T11:52:19.460Z,97994.69
2023-02-09T11:54:53.075Z,97996.88
2023-02-09T11:57:37.132Z,97991.53
2023-02-09T12:00:08.263Z,97987.78
2023-02-09T12:02:53.547Z,97982.25
2023-02-09T12:05:23.553Z,97982.91
2023-02-09T12:08:26.358Z,97979.78
2023-02-09T12:11:11.692Z,97978.91
2023-02-09T12:14:08.187Z,97980.84
2023-02-09T12:16:42.268Z,97975.63
2023-02-09T12:19:31.081Z,97980.56
2023-02-09T12:21:59.281Z,97968.97
2023-02-09T12:24:40.135Z,97965.16
2023-02-09T12:27:26.965Z,97967.97
2023-02-09T12:29:56.596Z,97965.84
2023-02-09T12:32:45.600Z,97972.13
2023-02-09T12:35:29.848Z,97970.50
2023-02-09T12:38:16.163Z,97972.81
2023-02-09T12:40:44.444Z,97973.97
2023-02-09T12:43:30.003Z,97977.25
2023-02-09T12:46:24.369Z,97964.47
2023-02-09T12:49:19.953Z,97962.00
2023-02-09T12:52:20.841Z,97962.19
2023-02-09T12:54:52.662Z,97964.25
2023-02-09T12:57:55.049Z,97964.84
2023-02-09T13:00:54.918Z,97954.03
2023-02-09T13:03:26.321Z,97958.13
2023-02-09T13:06:00.654Z,97957.16
2023-02-09T13:08:39.835Z,97951.28
2023-02-09T13:11:24.089Z,97959.97
2023-02-09T13:13:56.836Z,97953.56
2023-02-09T13:16:51.298Z,97958.16
2023-02-09T13:19:48.071Z,97965.22
2023-02-09T13:22:51.114Z,97965.44
2023-02-09T13:25:30.954Z,97954.47
2023-02-09T13:28:10.796Z,97962.69
2023-02-09T13:30:38.901Z,97972.13
2023-02-09T13:33:23.694Z,97981.41
2023-02-09T13:36:13.506Z,97975.16
2023-02-09T13:38:44.864Z,97968.53
2023-02-09T13:41:27.996Z,97984.50
2023-02-09T13:43:56.271Z,97981.09
2023-02-09T13:46:27.452Z,97986.13
2023-02-09T13:48:56.368Z,97978.06
2023-02-09T13:51:25.893Z,97981.19
2023-02-09T13:53:58.878Z,97981.56
2023-02-09T13:56:27.909Z,97981.28
2023-02-09T13:58:57.156Z,97980.63
2023-02-09T14:01:30.842Z,97976.88
2023-02-09T14:04:06.454Z,97970.88
2023-02-09T14:06:41.350Z,97976.88
2023-02-09T14:09:14.706Z,97973.56
2023-02-09T14:11:49.217Z,97979.78
2023-02-09T14:14:23.228Z,97972.06
2023-02-09T14:17:24.494Z,97981.97
2023-02-09T14:19:54.441Z,97983.38
2023-02-09T14:22:33.733Z,97993.69
2023-02-09T14:25:06.467Z,97987.41
2023-02-09T14:27:36.376Z,97998.44
2023-02-09T14:30:04.916Z,97996.59
2023-02-09T14:32:36.136Z,97999.72
2023-02-09T14:35:20.826Z,98002.94
2023-02-09T14:37:52.866Z,98003.03
2023-02-09T14:40:32.029Z,98005.31
2023-02-09T14:43:03.635Z,98001.28
2023-02-09T14:45:44.579Z,98004.19
2023-02-09T14:48:21.520Z,98013.25
2023-02-09T14:50:51.431Z,98009.34
2023-02-09T14:53:22.912Z,98011.28
2023-02-09T14:55:51.107Z,98012.13
2023-02-09T14:58:24.366Z,98016.59
2023-02-09T15:00:55.193Z,98012.91
2023-02-09T15:03:23.987Z,98017.06
2023-02-09T15:05:57.698Z,98013.69
2023-02-09T15:08:29.362Z,98015.16
2023-02-09T15:11:01.096Z,98022.06
2023-02-09T15:13:32.627Z,98013.09
2023-02-09T15:16:00.696Z,98017.69
2023-02-09T15:18:29.018Z,98021.81
2023-02-09T15:20:58.991Z,98017.94
2023-02-09T15:23:28.415Z,98021.28
2023-02-09T15:25:56.432Z,98022.69
2023-02-09T15:28:29.927Z,98022.97
2023-02-09T15:30:59.647Z,98028.75
2023-02-09T15:33:29.943Z,98037.16
2023-02-09T15:35:59.895Z,98033.06
2023-02-09T15:38:29.459Z,98044.63
2023-02-09T15:41:23.844Z,98045.78
2023-02-09T15:44:09.651Z,98042.56
2023-02-09T15:46:55.232Z,98038.47
2023-02-09T15:49:23.594Z,98044.56
2023-02-09T15:51:51.871Z,98043.16
2023-02-09T15:54:27.184Z,98057.47
2023-02-09T15:56:55.342Z,98054.59
2023-02-09T15:59:24.602Z,98045.63
2023-02-09T16:01:52.774Z,98047.97
2023-02-09T16:04:20.891Z,98048.91
2023-02-09T16:06:52.700Z,98051.97
2023-02-09T16:09:26.643Z,98047.59
2023-02-09T16:11:55.088Z,98046.94
2023-02-09T16:14:25.977Z,98055.34
2023-02-09T16:16:54.211Z,98061.13
2023-02-09T16:19:22.522Z,98061.13
2023-02-09T16:21:56.382Z,98062.09
2023-02-09T16:24:32.416Z,98072.13
2023-02-09T16:27:01.554Z,98068.03
2023-02-09T16:29:29.788Z,98068.91
2023-02-09T16:31:57.912Z,98077.69
2023-02-09T16:34:25.977Z,98079.22
2023-02-09T16:36:54.030Z,98083.72
2023-02-09T16:39:23.622Z,98085.69
2023-02-09T16:41:53.563Z,98086.22
2023-02-09T16:44:24.944Z,98085.41
2023-02-09T16:46:56.382Z,98092.41
2023-02-09T16:49:37.751Z,98096.00
2023-02-09T16:52:16.005Z,98095.31
2023-02-09T16:54:50.273Z,98095.03
2023-02-09T16:57:23.411Z,98102.16
2023-02-09T16:59:52.269Z,98103.00
2023-02-09T17:02:39.412Z,98103.50
2023-02-09T17:05:18.638Z,98107.34
2023-02-09T17:07:54.886Z,98110.78
2023-02-09T17:10:27.272Z,98114.97
2023-02-09T17:12:56.768Z,98129.09
2023-02-09T17:15:31.172Z,98137.16
2023-02-09T17:18:04.548Z,98129.03
2023-02-09T17:20:39.056Z,98136.78
2023-02-09T17:23:08.414Z,98139.84
2023-02-09T17:25:37.210Z,98140.38
2023-02-09T17:28:06.647Z,98126.91
2023-02-09T17:30:35.697Z,98127.72
2023-02-09T17:33:07.426Z,98135.19
2023-02-09T17:36:10.160Z,98142.38
2023-02-09T17:38:30.811Z,98135.19
2023-02-09T17:41:01.670Z,98128.41
2023-02-09T17:43:31.392Z,98129.06
2023-02-09T17:46:00.615Z,98133.97
2023-02-09T17:48:29.782Z,98125.44
2023-02-09T17:51:00.300Z,98130.47
2023-02-09T17:53:33.721Z,98128.94
2023-02-09T17:58:57.350Z,98128.44
2023-02-09T18:01:28.731Z,98134.63
2023-02-09T18:03:59.539Z,98137.44
2023-02-09T18:06:35.156Z,98142.84
2023-02-09T18:09:06.091Z,98141.75
2023-02-09T18:11:57.226Z,98142.28
2023-02-09T18:14:28.700Z,98150.28
2023-02-09T18:16:57.087Z,98149.44
2023-02-09T18:19:26.171Z,98152.75
2023-02-09T18:21:57.227Z,98154.06
2023-02-09T18:24:28.685Z,98165.16
2023-02-09T18:26:57.209Z,98170.00
2023-02-09T18:29:29.486Z,98161.03
2023-02-09T18:31:58.324Z,98167.31
2023-02-09T18:34:27.507Z,98167.22
2023-02-09T18:36:55.653Z,98170.69
2023-02-09T18:39:24.042Z,98167.69
2023-02-09T18:41:54.320Z,98177.28
2023-02-09T18:44:26.786Z,98177.53
2023-02-09T18:46:56.506Z,98180.13
2023-02-09T18:49:24.587Z,98181.56
2023-02-09T18:51:53.146Z,98177.81
2023-02-09T18:54:21.550Z,98181.34
2023-02-09T18:56:52.761Z,98192.47
2023-02-09T18:59:21.060Z,98190.22
2023-02-09T19:01:50.467Z,98199.94
2023-02-09T19:04:20.306Z,98203.59
2023-02-09T19:06:48.293Z,98199.84
2023-02-09T19:09:16.409Z,98204.22
2023-02-09T19:11:44.926Z,98212.00
2023-02-09T19:14:30.700Z,98213.31
2023-02-09T19:16:58.871Z,98208.13
2023-02-09T19:19:28.644Z,98212.97
2023-02-09T19:21:57.877Z,98218.75
2023-02-09T19:24:26.459Z,98222.28
2023-02-09T19:26:57.678Z,98222.06
2023-02-09T19:29:25.849Z,98222.06
2023-02-09T19:31:56.042Z,98219.25
2023-02-09T19:34:24.586Z,98217.25
2023-02-09T19:36:54.085Z,98218.91
2023-02-09T19:39:22.103Z,98228.34
2023-02-09T19:41:50.190Z,98225.41
2023-02-09T19:44:18.451Z,98232.13
2023-02-09T19:46:46.521Z,98227.50
2023-02-09T19:49:14.704Z,98227.75
2023-02-09T19:51:43.071Z,98240.03
2023-02-09T19:54:12.466Z,98223.38
2023-02-09T19:56:41.668Z,98236.50
2023-02-09T19:59:10.341Z,98238.28
2023-02-09T20:01:39.777Z,98235.78
2023-02-09T20:04:08.246Z,98230.25
2023-02-09T20:06:36.613Z,98235.66
2023-02-09T20:09:05.505Z,98231.66
2023-02-09T20:11:35.150Z,98225.38
2023-02-09T20:14:05.337Z,98226.91
2023-02-09T20:16:33.810Z,98231.75
2023-02-09T20:19:02.103Z,98240.03
2023-02-09T20:21:30.306Z,98235.06
2023-02-09T20:23:58.993Z,98232.22
2023-02-09T20:26:32.886Z,98229.28
2023-02-09T20:29:05.642Z,98238.13
2023-02-09T20:31:38.304Z,98226.81
2023-02-09T20:34:09.785Z,98233.53
2023-02-09T20:36:40.391Z,98237.88
2023-02-09T20:39:13.415Z,98239.56
2023-02-09T20:42:02.231Z,98239.56
2023-02-09T20:44:49.040Z,98242.03
2023-02-09T20:47:17.396Z,98244.75
2023-02-09T20:49:45.973Z,98248.75
2023-02-09T20:52:14.155Z,98253.34
2023-02-09T20:54:42.217Z,98276.00
2023-02-09T20:57:10.700Z,98273.31
2023-02-09T20:59:40.401Z,98276.81
2023-02-09T21:02:08.806Z,98278.50
2023-02-09T21:04:36.839Z,98270.59
2023-02-09T21:07:05.071Z,98269.66
2023-02-09T21:09:34.304Z,98267.28
2023-02-09T21:12:02.373Z,98266.44
2023-02-09T21:14:41.784Z,98271.78
2023-02-09T21:17:12.631Z,98267.59
2023-02-09T21:19:40.807Z,98275.72
2023-02-09T21:22:09.447Z,98267.88
2023-02-09T21:24:38.791Z,98274.69
2023-02-09T21:27:07.261Z,98276.72
2023-02-09T21:29:36.224Z,98282.69
2023-02-09T21:32:07.278Z,98283.88
2023-02-09T21:34:36.836Z,98281.75
2023-02-09T21:37:07.843Z,98283.16
2023-02-09T21:39:35.973Z,98286.09
2023-02-09T21:42:21.504Z,98286.09
2023-02-09T21:44:49.656Z,98297.19
2023-02-09T21:47:18.949Z,98298.72
2023-02-09T21:49:49.471Z,98294.22
2023-02-09T21:52:17.534Z,98303.88
2023-02-09T21:54:45.670Z,98290.78
2023-02-09T21:57:13.720Z,98300.88
2023-02-09T21:59:44.372Z,98306.88
2023-02-09T22:02:16.059Z,98310.16
2023-02-09T22:04:45.624Z,98310.53
2023-02-09T22:07:15.779Z,98309.56
2023-02-09T22:09:43.868Z,98308.94
2023-02-09T22:12:11.984Z,98310.00
2023-02-09T22:14:40.082Z,98318.03
2023-02-09T22:17:08.067Z,98319.03
2023-02-09T22:19:36.588Z,98319.44
2023-02-09T22:22:05.172Z,98331.13
2023-02-09T22:24:34.875Z,98332.06
2023-02-09T22:27:04.906Z,98331.13
2023-02-09T22:29:34.467Z,98337.63
2023-02-09T22:32:03.084Z,98334.94
2023-02-09T22:34:31.184Z,98336.56
2023-02-09T22:36:59.205Z,98330.22
2023-02-09T22:39:27.291Z,98333.72
2023-02-09T22:41:59.291Z,98327.63
2023-02-09T22:44:30.092Z,98332.06
2023-02-09T22:46:58.640Z,98334.94
2023-02-09T22:49:26.687Z,98333.69
2023-02-09T22:51:54.814Z,98337.09
2023-02-09T22:54:22.899Z,98344.38
2023-02-09T22:56:51.159Z,98343.31
2023-02-09T22:59:20.697Z,98344.38
2023-02-09T23:01:49.118Z,98348.50
2023-02-09T23:04:17.205Z,98350.75
2023-02-09T23:06:45.631Z,98345.03
2023-02-09T23:09:15.088Z,98345.03
2023-02-09T23:11:44.290Z,98348.34
2023-02-09T23:14:13.645Z,98355.63
2023-02-09T23:16:44.998Z,98354.47
2023-02-09T23:19:16.509Z,98357.38
2023-02-09T23:21:48.040Z,98359.06
2023-02-09T23:24:18.956Z,98359.84
2023-02-09T23:26:47.103Z,98355.72
2023-02-09T23:29:17.113Z,98360.13
2023-02-09T23:31:48.030Z,98355.31
2023-02-09T23:34:19.203Z,98351.69
2023-02-09T23:36:47.259Z,98349.38
2023-02-09T23:39:18.094Z,98355.16
2023-02-09T23:41:46.253Z,98366.06
2023-02-09T23:44:14.414Z,98355.88
2023-02-09T23:46:42.540Z,98358.34
2023-02-09T23:49:12.619Z,98347.06
2023-02-09T23:51:40.669Z,98354.59
2023-02-09T23:54:09.254Z,98350.34
2023-02-09T23:56:37.795Z,98354.84
2023-02-09T23:59:09.286Z,98359.22
